Lake Linden, Michigan
Current Conditions -  °F | °C
As of 2:53 AM on Friday 24 Oct 2014 (Local Time) from KCMX Reporting Station
Haze Haze  
Wind Chill: 46°   Ceiling: 300
Heat Index: 46°   Visibility: 6mi
Dew Point: 44°   Wind: 3mph
Humidity: 93%   Direction: NA
Pressure: 29.96"   Gusts: NA
Location:  47.19°N, 88.41°W
Report Text: KCMX 240653Z AUTO VRB03KT 6SM BR OVC003 08/07 A2996 RMK AO2 SLP152 T00780067
Loading
Personal Weather Stations






























Interactive Weather Map
Tropical Storm Tracking
New forecast layout! Learn more

10-Day Weather Forecast

Advertisements
Track Severe Weather on mobile